Impacts METAR Board
IDs:

KNBT - Piney Island/Bomb Rn, NC, US

Updated at: 1800 UTC 02 Oct 2022
Potential Impact None Slight Moderate High
Time 02/06Z 02/07Z 02/08Z 02/09Z 02/10Z 02/11Z 02/12Z 02/13Z 02/14Z 02/15Z 02/16Z 02/17Z 02/18Z
Temp71 72 72 73 72 71 72 72 72 72 74 79
Dewpt64 63 64 64 61 61 61 62 61 61 61 55
Altim29.83 29.84 29.83 29.83 29.84 29.85 29.87 29.88 29.89 29.89 29.87 29.86
VIS10 10 10 10 10 10 10 10 10 10 10 10
CIG-- 70 60 70 70 65 65 40 60 65 30 --
CoverCLROVCOVCOVCBKNOVCOVCOVCOVCOVCBKNCLR
FltCatVFRVFRVFRVFRVFRVFRVFRVFRVFRVFRMVFRVFR
WX------------------------
WDir33034031035035031033036028030070290
WSpd4 3 3 4 5 4 5 3 6 6 5 10
WGst-- -- -- -- -- -- -- -- -- -- -- --
Raw hourly METARs
KNBT 020600Z AUTO 33004KT 10SM CLR 22/18 A2983 RMK AO2 SLP106 T02170178 10228 20211 58005
KNBT 020700Z AUTO 34003KT 10SM OVC070 22/17 A2984 RMK AO2 SLP107 T02220172
KNBT 020800Z AUTO 31003KT 10SM BKN060 OVC075 22/18 A2983 RMK AO2 SLP105 T02220178
KNBT 020900Z AUTO 35004KT 10SM OVC070 23/18 A2983 RMK AO2 SLP106 T02280178 56005
KNBT 021000Z AUTO 35005KT 10SM BKN070 22/16 A2984 RMK AO2 SLP108 T02220161
KNBT 021100Z AUTO 31004KT 10SM SCT042 OVC065 22/16 A2985 RMK AO2 SLP113 T02170161
KNBT 021200Z AUTO 33005KT 10SM OVC065 22/16 A2987 RMK AO2 SLP118 T02220161 10228 20206 53008
KNBT 021300Z AUTO 36003KT 10SM BKN040 OVC050 22/17 A2988 RMK AO2 SLP124 T02220167
KNBT 021400Z AUTO 28006KT 10SM FEW032 OVC060 22/16 A2989 RMK AO2 SLP127 T02220161
KNBT 021500Z AUTO 30006KT 10SM FEW038 OVC065 22/16 A2989 RMK AO2 SLP127 T02220161 51014

KNBT 021700Z AUTO 07005KT 10SM SCT025 BKN030 23/16 A2987 RMK AO2 SLP118 T02330161
KNBT 021800Z AUTO 29010KT 10SM CLR 26/13 A2986 RMK AO2 SLP115 T02610128 10261 20217 58009



Page loaded:  18:52 UTC  |   11:52 AM Pacific  |   12:52 PM Mountain  |   01:52 PM Central  |   02:52 PM Eastern

 

ADVISORIES

FORECASTS

FORECASTS

OBSERVATIONS

USER TOOLS

ABOUT US